Onchiota, New York
Current Conditions -  °F | °C
As of 12:06 PM on Friday 28 Nov 2014 (Local Time) from KSLK Reporting Station
Light Snow Light Snow  
Wind Chill:   Ceiling: 2300
Heat Index: 19°   Visibility: 1.2mi
Dew Point: 13°   Wind: 10mph
Humidity: 77%   Direction: 250°WSW
Pressure: 30.01"   Gusts: NA
Location:  44.5284°N, 74.0904°W
Report Text: KSLK 281706Z AUTO 25009KT 1 1/4SM -SN BKN023 OVC031 M07/M11 A3001 RMK AO2 P0000 T10721106
Loading
Personal Weather Stations






























Interactive Weather Map New forecast layout! Learn more

10-Day Weather Forecast

Advertisements
Track Severe Weather on mobile